createdAt,value
2022-09-15T00:01:10.099Z,4.50
2022-09-15T00:03:38.371Z,4.97
2022-09-15T00:06:06.016Z,5.05
2022-09-15T00:08:33.809Z,5.15
2022-09-15T00:11:15.808Z,4.87
2022-09-15T00:13:44.137Z,5.60
2022-09-15T00:16:15.277Z,5.37
2022-09-15T00:18:44.326Z,5.75
2022-09-15T00:21:15.148Z,5.60
2022-09-15T00:23:43.064Z,5.40
2022-09-15T00:26:12.621Z,5.50
2022-09-15T00:28:40.835Z,5.53
2022-09-15T00:31:11.381Z,5.68
2022-09-15T00:33:38.941Z,5.80
2022-09-15T00:36:08.514Z,5.85
2022-09-15T00:38:36.685Z,5.72
2022-09-15T00:41:05.649Z,5.70
2022-09-15T00:44:00.518Z,5.80
2022-09-15T00:46:33.795Z,5.90
2022-09-15T00:49:24.986Z,6.78
2022-09-15T00:51:58.966Z,6.85
2022-09-15T00:54:35.227Z,6.95
2022-09-15T00:57:05.721Z,6.60
2022-09-15T00:59:41.544Z,6.75
2022-09-15T01:02:16.852Z,6.72
2022-09-15T01:04:44.725Z,6.68
2022-09-15T01:07:15.028Z,7.00
2022-09-15T01:09:58.497Z,6.35
2022-09-15T01:12:27.486Z,6.10
2022-09-15T01:14:54.975Z,5.50
2022-09-15T01:17:45.816Z,6.12
2022-09-15T01:20:37.572Z,4.28
2022-09-15T01:23:23.523Z,4.70
2022-09-15T01:26:30.236Z,4.28
2022-09-15T01:29:26.297Z,4.20
2022-09-15T01:32:26.683Z,3.60
2022-09-15T01:35:17.277Z,3.80
2022-09-15T01:37:51.805Z,4.00
2022-09-15T01:40:20.447Z,3.70
2022-09-15T01:42:50.354Z,4.10
2022-09-15T01:45:25.170Z,4.47
2022-09-15T01:47:54.734Z,4.60
2022-09-15T01:50:25.078Z,5.03
2022-09-15T01:52:54.944Z,5.00
2022-09-15T01:55:32.032Z,5.40
2022-09-15T01:57:59.796Z,5.47
2022-09-15T02:00:27.221Z,4.70
2022-09-15T02:03:05.104Z,4.43
2022-09-15T02:05:37.100Z,4.10
2022-09-15T02:08:24.217Z,3.50
2022-09-15T02:10:57.603Z,2.65
2022-09-15T02:13:34.129Z,2.67
2022-09-15T02:16:02.381Z,2.55
2022-09-15T02:18:35.901Z,2.30
2022-09-15T02:21:14.120Z,2.57
2022-09-15T02:23:44.868Z,2.50
2022-09-15T02:26:17.487Z,2.22
2022-09-15T02:28:45.673Z,2.25
2022-09-15T02:31:15.353Z,2.25
2022-09-15T02:33:47.941Z,2.30
2022-09-15T02:36:19.949Z,2.25
2022-09-15T02:38:51.283Z,2.00
2022-09-15T02:41:19.385Z,2.00
2022-09-15T02:43:48.089Z,2.10
2022-09-15T02:46:17.111Z,2.08
2022-09-15T02:48:45.058Z,2.15
2022-09-15T02:51:12.727Z,2.00
2022-09-15T02:53:40.425Z,2.00
2022-09-15T02:56:08.317Z,2.17
2022-09-15T02:58:35.931Z,2.08
2022-09-15T03:01:05.070Z,2.30
2022-09-15T03:03:34.148Z,2.10
2022-09-15T03:06:21.327Z,2.20
2022-09-15T03:08:56.634Z,2.30
2022-09-15T03:11:26.935Z,2.28
2022-09-15T03:13:56.523Z,2.10
2022-09-15T03:16:24.673Z,2.45
2022-09-15T03:18:54.359Z,2.28
2022-09-15T03:21:23.076Z,2.42
2022-09-15T03:23:50.643Z,2.40
2022-09-15T03:26:18.248Z,2.70
2022-09-15T03:28:46.053Z,2.50
2022-09-15T03:31:13.821Z,2.60
2022-09-15T03:33:41.318Z,3.15
2022-09-15T03:36:09.449Z,2.95
2022-09-15T03:38:37.023Z,2.70
2022-09-15T03:41:07.781Z,3.20
2022-09-15T03:43:36.320Z,3.00
2022-09-15T03:46:05.316Z,3.80
2022-09-15T03:48:35.181Z,3.50
2022-09-15T03:51:04.563Z,3.60
2022-09-15T03:53:33.566Z,3.57
2022-09-15T03:56:31.815Z,3.15
2022-09-15T03:59:01.800Z,3.00
2022-09-15T04:01:30.375Z,3.85
2022-09-15T04:03:58.752Z,3.37
2022-09-15T04:06:26.701Z,3.30
2022-09-15T04:08:54.826Z,3.40
2022-09-15T04:11:23.034Z,3.35
2022-09-15T04:13:50.637Z,3.50
2022-09-15T04:16:20.191Z,3.50
2022-09-15T04:18:48.002Z,3.10
2022-09-15T04:21:18.967Z,2.78
2022-09-15T04:23:51.579Z,2.90
2022-09-15T04:26:32.431Z,2.70
2022-09-15T04:29:04.254Z,3.05
2022-09-15T04:31:33.448Z,3.05
2022-09-15T04:34:01.051Z,2.87
2022-09-15T04:36:30.263Z,3.20
2022-09-15T04:38:59.131Z,3.40
2022-09-15T04:41:27.207Z,3.10
2022-09-15T04:43:55.398Z,3.10
2022-09-15T04:46:23.389Z,2.97
2022-09-15T04:48:51.975Z,3.20
2022-09-15T04:51:21.561Z,3.40
2022-09-15T04:53:50.369Z,3.55
2022-09-15T04:56:23.071Z,3.58
2022-09-15T04:59:03.493Z,4.00
2022-09-15T05:01:35.250Z,4.05
2022-09-15T05:04:04.683Z,3.78
2022-09-15T05:06:33.259Z,3.60
2022-09-15T05:09:01.108Z,4.18
2022-09-15T05:11:31.090Z,3.67
2022-09-15T05:13:59.377Z,4.00
2022-09-15T05:16:29.225Z,4.00
2022-09-15T05:18:59.569Z,3.90
2022-09-15T05:21:27.799Z,4.03
2022-09-15T05:23:55.519Z,3.97
2022-09-15T05:26:26.411Z,4.12
2022-09-15T05:28:55.021Z,4.20
2022-09-15T05:31:31.526Z,4.28
2022-09-15T05:34:01.078Z,4.20
2022-09-15T05:36:28.948Z,4.50
2022-09-15T05:38:56.836Z,4.50
2022-09-15T05:41:25.749Z,4.20
2022-09-15T05:43:55.308Z,4.78
2022-09-15T05:46:26.032Z,4.55
2022-09-15T05:48:56.237Z,4.28
2022-09-15T05:51:23.965Z,4.70
2022-09-15T05:53:51.720Z,4.57
2022-09-15T05:56:20.283Z,8.73
2022-09-15T05:58:48.859Z,4.47
2022-09-15T06:01:20.578Z,4.90
2022-09-15T06:03:49.183Z,4.82
2022-09-15T06:06:17.637Z,4.30
2022-09-15T06:08:50.047Z,4.32
2022-09-15T06:11:22.523Z,4.22
2022-09-15T06:13:50.332Z,4.47
2022-09-15T06:16:20.306Z,4.43
2022-09-15T06:18:49.565Z,4.78
2022-09-15T06:21:19.782Z,4.60
2022-09-15T06:23:50.795Z,4.87
2022-09-15T06:26:19.234Z,4.50
2022-09-15T06:28:51.813Z,4.50
2022-09-15T06:31:21.178Z,4.45
2022-09-15T06:33:54.152Z,4.20
2022-09-15T06:36:24.944Z,4.20
2022-09-15T06:38:53.774Z,4.40
2022-09-15T06:41:21.542Z,4.53
2022-09-15T06:43:49.604Z,4.40
2022-09-15T06:46:20.817Z,3.95
2022-09-15T06:48:49.004Z,11.38
2022-09-15T06:51:20.564Z,7.93
2022-09-15T06:53:48.250Z,4.22
2022-09-15T06:56:18.421Z,4.15
2022-09-15T06:58:48.946Z,4.30
2022-09-15T07:01:43.127Z,4.20
2022-09-15T07:04:11.236Z,4.10
2022-09-15T07:06:39.591Z,3.90
2022-09-15T07:09:07.118Z,3.90
2022-09-15T07:11:35.023Z,3.75
2022-09-15T07:14:02.592Z,3.90
2022-09-15T07:16:30.359Z,5.60
2022-09-15T07:19:01.318Z,3.83
2022-09-15T07:21:28.846Z,3.75
2022-09-15T07:23:57.656Z,3.72
2022-09-15T07:26:27.313Z,3.80
2022-09-15T07:28:56.800Z,3.55
2022-09-15T07:31:26.461Z,3.60
2022-09-15T07:33:54.685Z,3.30
2022-09-15T07:36:22.260Z,3.58
2022-09-15T07:38:50.068Z,3.40
2022-09-15T07:41:22.559Z,3.30
2022-09-15T07:43:54.698Z,3.53
2022-09-15T07:46:24.035Z,3.17
2022-09-15T07:48:53.465Z,3.20
2022-09-15T07:51:21.012Z,3.00
2022-09-15T07:53:49.474Z,3.03
2022-09-15T07:56:20.766Z,3.00
2022-09-15T07:58:49.008Z,2.80
2022-09-15T08:01:18.312Z,3.03
2022-09-15T08:03:51.964Z,3.92
2022-09-15T08:06:23.072Z,2.80
2022-09-15T08:08:55.112Z,2.75
2022-09-15T08:11:26.702Z,2.50
2022-09-15T08:13:54.538Z,2.78
2022-09-15T08:16:23.496Z,2.65
2022-09-15T08:18:52.678Z,2.53
2022-09-15T08:21:22.010Z,2.60
2022-09-15T08:23:55.300Z,2.42
2022-09-15T08:26:23.985Z,2.20
2022-09-15T08:28:52.024Z,2.50
2022-09-15T08:31:19.657Z,2.33
2022-09-15T08:33:48.746Z,2.10
2022-09-15T08:36:16.229Z,1.80
2022-09-15T08:38:45.092Z,2.20
2022-09-15T08:41:14.706Z,1.92
2022-09-15T08:43:47.792Z,1.85
2022-09-15T08:46:21.301Z,2.00
2022-09-15T08:49:02.737Z,1.90
2022-09-15T08:51:42.121Z,2.00
2022-09-15T08:54:22.426Z,1.70
2022-09-15T08:56:50.769Z,1.80
2022-09-15T08:59:19.622Z,1.70
2022-09-15T09:02:02.799Z,1.70
2022-09-15T09:04:36.843Z,1.70
2022-09-15T09:07:04.342Z,1.73
2022-09-15T09:09:54.293Z,1.60
2022-09-15T09:12:24.892Z,1.60
2022-09-15T09:15:07.829Z,1.77
2022-09-15T09:17:42.470Z,1.50
2022-09-15T09:20:19.388Z,1.62
2022-09-15T09:22:48.735Z,1.52
2022-09-15T09:25:27.240Z,1.70
2022-09-15T09:27:58.287Z,1.60
2022-09-15T09:30:28.012Z,1.50
2022-09-15T09:33:29.918Z,1.77
2022-09-15T09:36:01.255Z,1.30
2022-09-15T09:38:31.795Z,1.40
2022-09-15T09:41:02.257Z,1.60
2022-09-15T09:43:31.209Z,1.30
2022-09-15T09:45:59.411Z,1.40
2022-09-15T09:48:28.200Z,1.40
2022-09-15T09:50:56.322Z,1.40
2022-09-15T09:53:32.781Z,1.40
2022-09-15T09:56:13.071Z,1.30
2022-09-15T09:58:40.859Z,2.17
2022-09-15T10:01:13.875Z,1.40
2022-09-15T10:03:43.335Z,1.40
2022-09-15T10:06:17.278Z,1.60
2022-09-15T10:08:59.394Z,1.37
2022-09-15T10:11:45.230Z,1.95
2022-09-15T10:14:32.561Z,1.40
2022-09-15T10:17:01.772Z,1.50
2022-09-15T10:19:31.958Z,1.60
2022-09-15T10:22:00.198Z,1.67
2022-09-15T10:24:27.513Z,1.73
2022-09-15T10:27:27.877Z,1.73
2022-09-15T10:29:56.448Z,1.73
2022-09-15T10:32:31.725Z,1.60
2022-09-15T10:35:04.198Z,1.77
2022-09-15T10:37:46.095Z,1.70
2022-09-15T10:40:33.644Z,1.70
2022-09-15T10:43:05.154Z,1.87
2022-09-15T10:45:40.241Z,1.73
2022-09-15T10:48:20.231Z,1.70
2022-09-15T10:51:21.848Z,1.77
2022-09-15T10:54:14.167Z,1.70
2022-09-15T10:56:44.218Z,1.70
2022-09-15T10:59:32.590Z,1.50
2022-09-15T11:02:19.208Z,1.70
2022-09-15T11:04:55.219Z,2.20
2022-09-15T11:07:28.855Z,2.12
2022-09-15T11:10:22.648Z,2.50
2022-09-15T11:13:04.451Z,2.60
2022-09-15T11:15:51.191Z,2.40
2022-09-15T11:18:40.742Z,2.90
2022-09-15T11:21:21.863Z,2.80
2022-09-15T11:23:58.086Z,2.50
2022-09-15T11:26:37.070Z,2.90
2022-09-15T11:29:07.863Z,2.90
2022-09-15T11:31:42.557Z,3.00
2022-09-15T11:34:34.614Z,3.00
2022-09-15T11:37:09.192Z,2.80
2022-09-15T11:40:07.427Z,2.87
2022-09-15T11:42:36.314Z,2.70
2022-09-15T11:45:04.186Z,2.70
2022-09-15T11:47:40.383Z,2.80
2022-09-15T11:50:11.061Z,3.03
2022-09-15T11:52:57.430Z,2.90
2022-09-15T11:55:25.276Z,2.87
2022-09-15T11:58:09.153Z,3.40
2022-09-15T12:00:43.403Z,2.80
2022-09-15T12:03:11.195Z,3.00
2022-09-15T12:05:49.802Z,3.20
2022-09-15T12:08:32.475Z,2.62
2022-09-15T12:11:02.099Z,2.72
2022-09-15T12:13:31.224Z,2.80
2022-09-15T12:16:00.695Z,2.70
2022-09-15T12:19:14.669Z,2.80
2022-09-15T12:21:56.996Z,2.92
2022-09-15T12:24:45.909Z,2.53
2022-09-15T12:27:18.258Z,2.70
2022-09-15T12:29:50.665Z,3.12
2022-09-15T12:32:18.698Z,2.50
2022-09-15T12:34:54.908Z,2.60
2022-09-15T12:37:24.361Z,2.78
2022-09-15T12:39:53.071Z,2.63
2022-09-15T12:42:25.599Z,2.55
2022-09-15T12:45:06.116Z,2.92
2022-09-15T12:47:41.989Z,2.90
2022-09-15T12:50:15.805Z,2.80
2022-09-15T12:52:46.595Z,2.22
2022-09-15T12:55:35.276Z,2.10
2022-09-15T12:58:14.703Z,1.60
2022-09-15T13:01:06.721Z,1.40
2022-09-15T13:40:37.634Z,7.53
2022-09-15T13:43:38.686Z,3.72
2022-09-15T13:46:30.750Z,2.70
2022-09-15T13:49:14.198Z,2.62
2022-09-15T13:51:49.265Z,2.30
2022-09-15T13:54:22.221Z,2.30
2022-09-15T13:56:53.365Z,2.45
2022-09-15T13:59:30.403Z,2.40
2022-09-15T14:01:59.705Z,2.40
2022-09-15T14:04:31.692Z,2.25
2022-09-15T14:07:01.824Z,2.58
2022-09-15T14:09:34.832Z,2.15
2022-09-15T14:12:16.043Z,2.10
2022-09-15T14:14:53.854Z,2.25
2022-09-15T14:17:28.897Z,2.55
2022-09-15T14:20:05.629Z,2.30
2022-09-15T14:22:35.405Z,2.58
2022-09-15T14:25:16.997Z,2.30
2022-09-15T14:27:52.539Z,2.55
2022-09-15T14:30:26.644Z,2.85
2022-09-15T14:32:59.673Z,2.92
2022-09-15T14:35:37.349Z,4.03
2022-09-15T14:38:06.652Z,3.15
2022-09-15T14:40:38.589Z,3.83
2022-09-15T14:43:29.126Z,4.43
2022-09-15T14:46:15.160Z,3.97
2022-09-15T14:48:47.131Z,3.40
2022-09-15T14:51:19.436Z,4.50
2022-09-15T14:53:55.379Z,3.50
2022-09-15T14:56:30.616Z,3.40
2022-09-15T14:59:02.307Z,3.15
2022-09-15T15:01:42.264Z,3.40
2022-09-15T15:04:41.293Z,2.90
2022-09-15T15:07:24.756Z,3.30
2022-09-15T15:10:39.033Z,3.60
2022-09-15T15:13:19.103Z,3.55
2022-09-15T15:15:48.202Z,3.53
2022-09-15T15:18:40.278Z,3.30
2022-09-15T15:21:44.799Z,3.40
2022-09-15T15:24:18.894Z,3.85
2022-09-15T15:26:51.964Z,3.77
2022-09-15T15:29:48.798Z,3.37
2022-09-15T15:32:22.627Z,3.10
2022-09-15T15:35:01.027Z,3.58
2022-09-15T15:37:32.422Z,3.40
2022-09-15T15:40:08.779Z,3.05
2022-09-15T15:42:37.051Z,3.20
2022-09-15T15:45:35.692Z,3.53
2022-09-15T15:48:18.415Z,3.25
2022-09-15T15:50:47.586Z,3.03
2022-09-15T15:53:23.853Z,3.50
2022-09-15T15:55:55.305Z,3.20
2022-09-15T15:58:24.098Z,3.17
2022-09-15T16:01:03.332Z,3.20
2022-09-15T16:03:35.270Z,2.45
2022-09-15T16:06:03.888Z,2.62
2022-09-15T16:09:01.747Z,2.90
2022-09-15T16:11:41.124Z,2.80
2022-09-15T16:14:39.683Z,3.47
2022-09-15T16:17:12.978Z,3.10
2022-09-15T16:19:44.272Z,3.37
2022-09-15T16:22:22.219Z,3.13
2022-09-15T16:25:01.279Z,4.35
2022-09-15T16:27:29.410Z,3.30
2022-09-15T16:30:03.438Z,3.55
2022-09-15T16:32:32.791Z,3.57
2022-09-15T16:35:05.652Z,3.25
2022-09-15T16:37:35.879Z,2.90
2022-09-15T16:40:08.155Z,3.12
2022-09-15T16:42:43.992Z,3.53
2022-09-15T16:48:15.719Z,3.33
2022-09-15T16:50:56.058Z,3.30
2022-09-15T16:53:41.442Z,3.20
2022-09-15T16:56:15.732Z,3.67
2022-09-15T16:58:48.303Z,3.62
2022-09-15T17:01:20.977Z,3.60
2022-09-15T17:03:50.171Z,3.10
2022-09-15T17:06:27.901Z,3.60
2022-09-15T17:08:58.950Z,3.80
2022-09-15T17:11:30.102Z,5.60
2022-09-15T17:13:58.206Z,5.50
2022-09-15T17:16:31.568Z,5.40
2022-09-15T17:19:00.070Z,5.10
2022-09-15T17:21:32.008Z,5.20
2022-09-15T17:24:02.821Z,5.37
2022-09-15T17:26:33.674Z,5.60
2022-09-15T17:29:02.007Z,4.90
2022-09-15T17:31:30.649Z,4.35
2022-09-15T17:34:02.566Z,4.32
2022-09-15T17:36:32.010Z,5.12
2022-09-15T17:39:00.370Z,4.75
2022-09-15T17:41:36.600Z,4.32
2022-09-15T17:44:16.207Z,4.25
2022-09-15T17:47:02.164Z,4.25
2022-09-15T17:49:37.066Z,4.60
2022-09-15T17:52:05.865Z,5.20
2022-09-15T17:54:39.899Z,5.00
2022-09-15T17:57:11.435Z,4.85
2022-09-15T17:59:41.290Z,5.03
2022-09-15T18:02:22.258Z,5.00
2022-09-15T18:04:53.242Z,5.80
2022-09-15T18:07:26.644Z,5.47
2022-09-15T18:10:05.168Z,5.47
2022-09-15T18:12:35.283Z,5.30
2022-09-15T18:15:06.602Z,4.97
2022-09-15T18:17:39.260Z,5.15
2022-09-15T18:20:23.369Z,6.12
2022-09-15T18:22:57.341Z,5.20
2022-09-15T18:25:59.271Z,4.40
2022-09-15T18:29:00.723Z,4.07
2022-09-15T18:31:38.821Z,4.30
2022-09-15T18:34:28.671Z,4.27
2022-09-15T18:37:01.344Z,4.97
2022-09-15T18:39:40.241Z,5.55
2022-09-15T18:42:14.262Z,4.90
2022-09-15T18:44:51.453Z,4.50
2022-09-15T18:47:28.695Z,5.40
2022-09-15T18:49:59.384Z,5.20
2022-09-15T18:52:32.061Z,4.90
2022-09-15T18:55:10.008Z,4.68
2022-09-15T18:57:46.841Z,4.62
2022-09-15T19:00:24.830Z,4.22
2022-09-15T19:03:09.397Z,4.10
2022-09-15T19:05:55.819Z,3.58
2022-09-15T19:08:43.268Z,4.30
2022-09-15T19:11:18.888Z,3.53
2022-09-15T19:13:55.514Z,3.28
2022-09-15T19:16:53.611Z,3.00
2022-09-15T19:19:36.325Z,2.90
2022-09-15T19:22:16.520Z,3.50
2022-09-15T19:25:15.335Z,3.15
2022-09-15T19:27:44.161Z,3.30
2022-09-15T19:30:21.767Z,3.50
2022-09-15T19:32:51.299Z,3.70
2022-09-15T19:35:22.098Z,3.65
2022-09-15T19:37:55.397Z,3.70
2022-09-15T19:40:31.881Z,3.70
2022-09-15T19:43:01.982Z,3.28
2022-09-15T19:45:47.271Z,3.10
2022-09-15T19:48:22.016Z,2.67
2022-09-15T19:51:01.698Z,2.55
2022-09-15T19:53:34.187Z,2.90
2022-09-15T19:56:11.986Z,2.40
2022-09-15T19:58:44.675Z,2.40
2022-09-15T20:01:24.333Z,2.40
2022-09-15T20:06:46.185Z,2.80
2022-09-15T20:09:18.776Z,2.70
2022-09-15T20:11:48.837Z,2.42
2022-09-15T20:14:20.796Z,2.62
2022-09-15T20:16:57.483Z,2.80
2022-09-15T20:19:31.558Z,2.65
2022-09-15T20:22:09.068Z,2.90
2022-09-15T20:24:44.310Z,2.80
2022-09-15T20:27:14.641Z,2.90
2022-09-15T20:29:47.908Z,2.83
2022-09-15T20:32:16.677Z,3.00
2022-09-15T20:34:45.229Z,3.15
2022-09-15T20:37:13.330Z,3.55
2022-09-15T20:39:41.366Z,2.90
2022-09-15T20:42:10.719Z,3.55
2022-09-15T20:44:39.143Z,3.33
2022-09-15T20:47:07.204Z,3.08
2022-09-15T20:49:35.814Z,3.22
2022-09-15T20:52:06.288Z,3.85
2022-09-15T20:54:34.940Z,3.30
2022-09-15T20:57:03.507Z,3.15
2022-09-15T20:59:32.105Z,3.47
2022-09-15T21:02:04.906Z,3.45
2022-09-15T21:04:33.966Z,3.22
2022-09-15T21:07:02.104Z,3.17
2022-09-15T21:09:31.667Z,3.40
2022-09-15T21:12:00.751Z,3.62
2022-09-15T21:14:29.138Z,3.28
2022-09-15T21:16:56.913Z,3.85
2022-09-15T21:19:28.074Z,3.47
2022-09-15T21:21:55.940Z,3.73
2022-09-15T21:24:24.790Z,3.78
2022-09-15T21:27:11.607Z,4.07
2022-09-15T21:29:41.671Z,3.90
2022-09-15T21:32:10.676Z,4.20
2022-09-15T21:34:38.605Z,4.53
2022-09-15T21:37:09.924Z,4.37
2022-09-15T21:39:37.841Z,4.40
2022-09-15T21:42:05.923Z,4.97
2022-09-15T21:44:33.681Z,4.70
2022-09-15T21:47:01.880Z,5.10
2022-09-15T21:49:30.155Z,5.27
2022-09-15T21:51:57.758Z,5.10
2022-09-15T21:54:25.940Z,5.80
2022-09-15T21:56:53.476Z,5.40
2022-09-15T21:59:21.029Z,5.53
2022-09-15T22:01:49.097Z,5.35
2022-09-15T22:04:17.235Z,5.60
2022-09-15T22:06:47.002Z,5.35
2022-09-15T22:09:15.980Z,5.75
2022-09-15T22:11:44.488Z,5.82
2022-09-15T22:14:13.195Z,6.20
2022-09-15T22:16:44.361Z,6.37
2022-09-15T22:19:13.315Z,6.37
2022-09-15T22:21:42.263Z,5.65
2022-09-15T22:24:12.275Z,5.80
2022-09-15T22:26:41.153Z,6.03
2022-09-15T22:29:09.251Z,6.03
2022-09-15T22:31:37.024Z,6.15
2022-09-15T22:34:05.027Z,6.30
2022-09-15T22:36:32.784Z,6.57
2022-09-15T22:39:05.040Z,6.80
2022-09-15T22:41:40.074Z,6.80
2022-09-15T22:44:17.768Z,7.45
2022-09-15T22:46:49.746Z,7.12
2022-09-15T22:49:17.365Z,7.93
2022-09-15T22:51:46.011Z,7.37
2022-09-15T22:54:13.572Z,7.40
2022-09-15T22:56:41.142Z,7.22
2022-09-15T22:59:13.200Z,7.97
2022-09-15T23:01:49.308Z,7.62
2022-09-15T23:04:17.516Z,7.75
2022-09-15T23:06:45.035Z,7.80
2022-09-15T23:09:13.247Z,7.57
2022-09-15T23:11:41.959Z,7.75
2022-09-15T23:14:15.323Z,8.07
2022-09-15T23:16:43.736Z,7.40
2022-09-15T23:19:14.583Z,7.40
2022-09-15T23:21:42.035Z,7.70
2022-09-15T23:24:12.394Z,7.60
2022-09-15T23:26:40.425Z,7.90
2022-09-15T23:29:08.185Z,7.78
2022-09-15T23:31:36.294Z,7.70
2022-09-15T23:34:06.609Z,7.32
2022-09-15T23:36:34.048Z,7.75
2022-09-15T23:39:01.838Z,8.20
2022-09-15T23:41:29.744Z,8.25
2022-09-15T23:43:59.944Z,8.30
2022-09-15T23:46:27.872Z,8.00
2022-09-15T23:48:55.880Z,8.02
2022-09-15T23:51:23.917Z,8.32
2022-09-15T23:53:52.338Z,7.22
2022-09-15T23:56:22.201Z,6.90
2022-09-15T23:58:49.730Z,6.53
